sensor_id;sensor_type;location;lat;lon;timestamp;pressure;altitude;pressure_sealevel;temperature;humidity
37778;BME280;23615;51.506;7.678;2023-05-13T00:01:47;100329.59;;;11.51;90.42
37778;BME280;23615;51.506;7.678;2023-05-13T00:04:13;100335.75;;;11.51;90.21
37778;BME280;23615;51.506;7.678;2023-05-13T00:06:38;100330.44;;;11.51;90.10
37778;BME280;23615;51.506;7.678;2023-05-13T00:09:04;100338.06;;;11.48;90.23
37778;BME280;23615;51.506;7.678;2023-05-13T00:11:29;100330.13;;;11.41;90.09
37778;BME280;23615;51.506;7.678;2023-05-13T00:13:55;100334.28;;;11.37;90.44
37778;BME280;23615;51.506;7.678;2023-05-13T00:16:21;100338.00;;;11.36;90.36
37778;BME280;23615;51.506;7.678;2023-05-13T00:18:48;100332.19;;;11.39;90.28
37778;BME280;23615;51.506;7.678;2023-05-13T00:21:14;100332.47;;;11.31;90.02
37778;BME280;23615;51.506;7.678;2023-05-13T00:23:39;100327.41;;;11.23;90.39
37778;BME280;23615;51.506;7.678;2023-05-13T00:26:04;100336.47;;;11.22;90.44
37778;BME280;23615;51.506;7.678;2023-05-13T00:28:30;100329.56;;;11.14;90.70
37778;BME280;23615;51.506;7.678;2023-05-13T00:30:55;100332.84;;;11.16;91.06
37778;BME280;23615;51.506;7.678;2023-05-13T00:33:20;100334.00;;;11.20;91.10
37778;BME280;23615;51.506;7.678;2023-05-13T00:35:46;100333.19;;;11.20;90.83
37778;BME280;23615;51.506;7.678;2023-05-13T00:38:11;100334.00;;;11.20;90.52
37778;BME280;23615;51.506;7.678;2023-05-13T00:40:37;100333.66;;;11.17;90.50
37778;BME280;23615;51.506;7.678;2023-05-13T00:43:06;100334.50;;;11.11;90.54
37778;BME280;23615;51.506;7.678;2023-05-13T00:45:31;100336.22;;;11.05;90.49
37778;BME280;23615;51.506;7.678;2023-05-13T00:47:57;100330.47;;;11.02;90.64
37778;BME280;23615;51.506;7.678;2023-05-13T00:50:23;100335.06;;;10.95;90.40
37778;BME280;23615;51.506;7.678;2023-05-13T00:52:49;100337.53;;;10.96;90.51
37778;BME280;23615;51.506;7.678;2023-05-13T00:55:15;100332.03;;;10.91;90.65
37778;BME280;23615;51.506;7.678;2023-05-13T00:57:41;100332.25;;;10.90;90.72
37778;BME280;23615;51.506;7.678;2023-05-13T01:00:07;100334.31;;;10.87;90.77
37778;BME280;23615;51.506;7.678;2023-05-13T01:05:11;100347.03;;;10.85;91.24
37778;BME280;23615;51.506;7.678;2023-05-13T01:07:50;100344.16;;;10.87;91.11
37778;BME280;23615;51.506;7.678;2023-05-13T01:10:37;100338.44;;;10.83;90.69
37778;BME280;23615;51.506;7.678;2023-05-13T01:13:10;100332.72;;;10.80;91.05
37778;BME280;23615;51.506;7.678;2023-05-13T01:15:39;100341.56;;;10.80;90.87
37778;BME280;23615;51.506;7.678;2023-05-13T01:18:09;100340.53;;;10.81;91.01
37778;BME280;23615;51.506;7.678;2023-05-13T01:20:40;100343.78;;;10.83;91.43
37778;BME280;23615;51.506;7.678;2023-05-13T01:23:07;100331.50;;;10.82;91.39
37778;BME280;23615;51.506;7.678;2023-05-13T01:25:32;100340.53;;;10.81;90.93
37778;BME280;23615;51.506;7.678;2023-05-13T01:27:58;100346.28;;;10.78;91.10
37778;BME280;23615;51.506;7.678;2023-05-13T01:30:23;100334.84;;;10.71;90.68
37778;BME280;23615;51.506;7.678;2023-05-13T01:32:50;100346.97;;;10.67;90.48
37778;BME280;23615;51.506;7.678;2023-05-13T01:35:16;100344.97;;;10.63;90.78
37778;BME280;23615;51.506;7.678;2023-05-13T01:37:42;100345.59;;;10.58;91.34
37778;BME280;23615;51.506;7.678;2023-05-13T01:40:08;100345.59;;;10.58;91.80
37778;BME280;23615;51.506;7.678;2023-05-13T01:42:34;100345.19;;;10.61;91.52
37778;BME280;23615;51.506;7.678;2023-05-13T01:44:59;100349.84;;;10.66;91.62
37778;BME280;23615;51.506;7.678;2023-05-13T01:47:25;100355.59;;;10.69;91.81
37778;BME280;23615;51.506;7.678;2023-05-13T01:49:51;100353.75;;;10.70;92.07
37778;BME280;23615;51.506;7.678;2023-05-13T01:52:16;100354.56;;;10.70;91.96
37778;BME280;23615;51.506;7.678;2023-05-13T01:54:41;100351.94;;;10.64;91.41
37778;BME280;23615;51.506;7.678;2023-05-13T01:57:07;100352.22;;;10.56;91.33
37778;BME280;23615;51.506;7.678;2023-05-13T01:59:32;100346.88;;;10.56;91.49
37778;BME280;23615;51.506;7.678;2023-05-13T02:01:57;100346.63;;;10.57;91.70
37778;BME280;23615;51.506;7.678;2023-05-13T02:04:23;100348.88;;;10.60;92.14
37778;BME280;23615;51.506;7.678;2023-05-13T02:06:48;100347.63;;;10.63;91.90
37778;BME280;23615;51.506;7.678;2023-05-13T02:09:13;100348.25;;;10.65;92.09
37778;BME280;23615;51.506;7.678;2023-05-13T02:11:39;100345.41;;;10.60;92.07
37778;BME280;23615;51.506;7.678;2023-05-13T02:14:04;100345.00;;;10.56;91.73
37778;BME280;23615;51.506;7.678;2023-05-13T02:16:30;100345.81;;;10.57;92.13
37778;BME280;23615;51.506;7.678;2023-05-13T02:18:55;100338.06;;;10.55;92.09
37778;BME280;23615;51.506;7.678;2023-05-13T02:21:21;100345.25;;;10.55;92.29
37778;BME280;23615;51.506;7.678;2023-05-13T02:23:46;100346.25;;;10.54;92.28
37778;BME280;23615;51.506;7.678;2023-05-13T02:26:11;100342.38;;;10.49;92.09
37778;BME280;23615;51.506;7.678;2023-05-13T02:28:37;100347.09;;;10.47;92.19
37778;BME280;23615;51.506;7.678;2023-05-13T02:31:02;100343.63;;;10.47;92.01
37778;BME280;23615;51.506;7.678;2023-05-13T02:33:27;100340.38;;;10.45;92.21
37778;BME280;23615;51.506;7.678;2023-05-13T02:35:53;100340.38;;;10.45;92.28
37778;BME280;23615;51.506;7.678;2023-05-13T02:38:18;100343.25;;;10.43;92.04
37778;BME280;23615;51.506;7.678;2023-05-13T02:40:43;100339.16;;;10.41;92.00
37778;BME280;23615;51.506;7.678;2023-05-13T02:43:08;100337.97;;;10.37;91.36
37778;BME280;23615;51.506;7.678;2023-05-13T02:45:34;100332.69;;;10.24;91.65
37778;BME280;23615;51.506;7.678;2023-05-13T02:47:59;100331.50;;;10.20;91.75
37778;BME280;23615;51.506;7.678;2023-05-13T02:50:24;100333.09;;;10.21;92.55
37778;BME280;23615;51.506;7.678;2023-05-13T02:52:50;100334.75;;;10.22;92.37
37778;BME280;23615;51.506;7.678;2023-05-13T02:55:16;100340.53;;;10.19;91.97
37778;BME280;23615;51.506;7.678;2023-05-13T02:57:41;100349.91;;;10.21;92.35
37778;BME280;23615;51.506;7.678;2023-05-13T03:00:07;100343.56;;;10.22;92.57
37778;BME280;23615;51.506;7.678;2023-05-13T03:02:33;100350.75;;;10.22;92.26
37778;BME280;23615;51.506;7.678;2023-05-13T03:04:59;100342.75;;;10.22;92.04
37778;BME280;23615;51.506;7.678;2023-05-13T03:07:24;100357.91;;;10.21;91.95
37778;BME280;23615;51.506;7.678;2023-05-13T03:09:50;100347.06;;;10.16;91.72
37778;BME280;23615;51.506;7.678;2023-05-13T03:12:15;100341.94;;;10.14;92.37
37778;BME280;23615;51.506;7.678;2023-05-13T03:14:41;100340.50;;;10.12;92.35
37778;BME280;23615;51.506;7.678;2023-05-13T03:17:08;100339.91;;;10.10;91.90
37778;BME280;23615;51.506;7.678;2023-05-13T03:19:35;100341.53;;;10.11;91.83
37778;BME280;23615;51.506;7.678;2023-05-13T03:22:01;100336.84;;;10.06;91.92
37778;BME280;23615;51.506;7.678;2023-05-13T03:24:26;100332.53;;;10.05;92.05
37778;BME280;23615;51.506;7.678;2023-05-13T03:26:51;100339.72;;;10.05;91.89
37778;BME280;23615;51.506;7.678;2023-05-13T03:29:17;100333.78;;;10.03;92.20
37778;BME280;23615;51.506;7.678;2023-05-13T03:31:42;100335.63;;;10.02;91.75
37778;BME280;23615;51.506;7.678;2023-05-13T03:34:07;100340.38;;;10.00;91.65
37778;BME280;23615;51.506;7.678;2023-05-13T03:36:33;100345.09;;;9.98;92.15
37778;BME280;23615;51.506;7.678;2023-05-13T03:38:58;100347.34;;;9.95;91.60
37778;BME280;23615;51.506;7.678;2023-05-13T03:41:23;100347.78;;;9.85;91.50
37778;BME280;23615;51.506;7.678;2023-05-13T03:43:48;100349.66;;;9.78;92.12
37778;BME280;23615;51.506;7.678;2023-05-13T03:46:14;100343.94;;;9.74;92.14
37778;BME280;23615;51.506;7.678;2023-05-13T03:48:40;100350.09;;;9.75;92.19
37778;BME280;23615;51.506;7.678;2023-05-13T03:51:05;100354.59;;;9.74;92.82
37778;BME280;23615;51.506;7.678;2023-05-13T03:53:31;100343.56;;;9.71;92.52
37778;BME280;23615;51.506;7.678;2023-05-13T03:55:56;100343.59;;;9.64;92.33
37778;BME280;23615;51.506;7.678;2023-05-13T03:58:21;100345.84;;;9.54;92.94
37778;BME280;23615;51.506;7.678;2023-05-13T04:00:47;100350.56;;;9.52;93.33
37778;BME280;23615;51.506;7.678;2023-05-13T04:03:14;100353.03;;;9.54;94.26
37778;BME280;23615;51.506;7.678;2023-05-13T04:05:45;100343.56;;;9.58;93.94
37778;BME280;23615;51.506;7.678;2023-05-13T04:08:10;100342.34;;;9.60;94.40
37778;BME280;23615;51.506;7.678;2023-05-13T04:10:36;100351.56;;;9.64;94.12
37778;BME280;23615;51.506;7.678;2023-05-13T04:13:01;100346.44;;;9.63;93.97
37778;BME280;23615;51.506;7.678;2023-05-13T04:15:27;100355.84;;;9.65;94.10
37778;BME280;23615;51.506;7.678;2023-05-13T04:17:52;100352.41;;;9.65;94.54
37778;BME280;23615;51.506;7.678;2023-05-13T04:20:18;100362.44;;;9.63;94.76
37778;BME280;23615;51.506;7.678;2023-05-13T04:22:43;100357.50;;;9.60;94.29
37778;BME280;23615;51.506;7.678;2023-05-13T04:25:09;100361.41;;;9.57;94.45
37778;BME280;23615;51.506;7.678;2023-05-13T04:27:34;100358.16;;;9.55;94.46
37778;BME280;23615;51.506;7.678;2023-05-13T04:30:00;100364.88;;;9.58;94.80
37778;BME280;23615;51.506;7.678;2023-05-13T04:32:25;100368.16;;;9.60;94.49
37778;BME280;23615;51.506;7.678;2023-05-13T04:34:51;100363.66;;;9.60;94.65
37778;BME280;23615;51.506;7.678;2023-05-13T04:37:17;100368.78;;;9.62;94.44
37778;BME280;23615;51.506;7.678;2023-05-13T04:39:46;100372.28;;;9.62;94.59
37778;BME280;23615;51.506;7.678;2023-05-13T04:42:12;100377.38;;;9.70;95.04
37778;BME280;23615;51.506;7.678;2023-05-13T04:44:38;100380.44;;;9.67;94.72
37778;BME280;23615;51.506;7.678;2023-05-13T04:47:03;100384.16;;;9.60;96.33
37778;BME280;23615;51.506;7.678;2023-05-13T04:49:29;100391.31;;;9.59;96.17
37778;BME280;23615;51.506;7.678;2023-05-13T04:51:54;100389.69;;;9.65;96.37
37778;BME280;23615;51.506;7.678;2023-05-13T04:54:19;100385.38;;;9.70;96.12
37778;BME280;23615;51.506;7.678;2023-05-13T04:56:45;100392.75;;;9.62;95.12
37778;BME280;23615;51.506;7.678;2023-05-13T04:59:12;100393.56;;;9.62;95.70
37778;BME280;23615;51.506;7.678;2023-05-13T05:01:37;100393.59;;;9.56;96.28
37778;BME280;23615;51.506;7.678;2023-05-13T05:04:03;100371.59;;;9.80;95.96
37778;BME280;23615;51.506;7.678;2023-05-13T05:06:28;100379.19;;;9.83;95.63
37778;BME280;23615;51.506;7.678;2023-05-13T05:08:54;100378.38;;;9.83;96.39
37778;BME280;23615;51.506;7.678;2023-05-13T05:11:19;100377.13;;;9.79;97.35
37778;BME280;23615;51.506;7.678;2023-05-13T05:13:44;100383.09;;;9.67;97.97
37778;BME280;23615;51.506;7.678;2023-05-13T05:16:10;100375.72;;;9.69;98.66
37778;BME280;23615;51.506;7.678;2023-05-13T05:18:35;100375.91;;;9.74;99.12
37778;BME280;23615;51.506;7.678;2023-05-13T05:21:01;100381.22;;;9.88;98.38
37778;BME280;23615;51.506;7.678;2023-05-13T05:23:27;100383.69;;;9.83;99.34
37778;BME280;23615;51.506;7.678;2023-05-13T05:25:52;100386.56;;;9.81;99.70
37778;BME280;23615;51.506;7.678;2023-05-13T05:28:17;100398.00;;;9.95;99.69
37778;BME280;23615;51.506;7.678;2023-05-13T05:30:42;100383.59;;;10.09;99.57
37778;BME280;23615;51.506;7.678;2023-05-13T05:33:08;100380.28;;;10.27;98.53
37778;BME280;23615;51.506;7.678;2023-05-13T05:35:33;100372.41;;;10.38;98.76
37778;BME280;23615;51.506;7.678;2023-05-13T05:38:02;100395.81;;;10.36;98.96
37778;BME280;23615;51.506;7.678;2023-05-13T05:40:29;100407.31;;;10.37;99.73
37778;BME280;23615;51.506;7.678;2023-05-13T05:42:54;100407.63;;;10.47;100.00
37778;BME280;23615;51.506;7.678;2023-05-13T05:45:20;100415.75;;;10.65;100.00
37778;BME280;23615;51.506;7.678;2023-05-13T05:47:45;100406.66;;;11.04;100.00
37778;BME280;23615;51.506;7.678;2023-05-13T05:50:10;100423.22;;;11.13;100.00
37778;BME280;23615;51.506;7.678;2023-05-13T05:52:36;100404.72;;;11.43;100.00
37778;BME280;23615;51.506;7.678;2023-05-13T05:55:01;100415.41;;;11.43;100.00
37778;BME280;23615;51.506;7.678;2023-05-13T05:57:27;100414.97;;;11.46;100.00
37778;BME280;23615;51.506;7.678;2023-05-13T05:59:52;100415.31;;;11.49;100.00
37778;BME280;23615;51.506;7.678;2023-05-13T06:02:18;100418.38;;;11.53;100.00
37778;BME280;23615;51.506;7.678;2023-05-13T06:04:43;100419.34;;;11.58;100.00
37778;BME280;23615;51.506;7.678;2023-05-13T06:07:08;100423.38;;;11.68;100.00
37778;BME280;23615;51.506;7.678;2023-05-13T06:09:34;100422.50;;;11.74;100.00
37778;BME280;23615;51.506;7.678;2023-05-13T06:11:59;100421.88;;;11.78;100.00
37778;BME280;23615;51.506;7.678;2023-05-13T06:14:24;100429.22;;;11.83;100.00
37778;BME280;23615;51.506;7.678;2023-05-13T06:16:50;100420.75;;;11.86;100.00
37778;BME280;23615;51.506;7.678;2023-05-13T06:19:15;100420.44;;;11.94;100.00
37778;BME280;23615;51.506;7.678;2023-05-13T06:21:40;100421.97;;;12.08;100.00
37778;BME280;23615;51.506;7.678;2023-05-13T06:24:07;100421.44;;;12.18;100.00
37778;BME280;23615;51.506;7.678;2023-05-13T06:26:33;100417.53;;;12.32;100.00
37778;BME280;23615;51.506;7.678;2023-05-13T06:28:58;100416.41;;;12.40;100.00
37778;BME280;23615;51.506;7.678;2023-05-13T06:31:23;100418.31;;;12.51;100.00
37778;BME280;23615;51.506;7.678;2023-05-13T06:33:49;100414.16;;;12.55;98.84
37778;BME280;23615;51.506;7.678;2023-05-13T06:36:14;100410.56;;;12.61;98.15
37778;BME280;23615;51.506;7.678;2023-05-13T06:38:39;100408.84;;;12.66;98.75
37778;BME280;23615;51.506;7.678;2023-05-13T06:41:05;100411.34;;;12.80;98.38
37778;BME280;23615;51.506;7.678;2023-05-13T06:43:30;100416.09;;;12.78;97.58
37778;BME280;23615;51.506;7.678;2023-05-13T06:45:56;100421.22;;;12.79;96.70
37778;BME280;23615;51.506;7.678;2023-05-13T06:48:21;100409.84;;;12.84;95.81
37778;BME280;23615;51.506;7.678;2023-05-13T06:50:46;100418.34;;;12.81;95.19
37778;BME280;23615;51.506;7.678;2023-05-13T06:53:13;100424.88;;;12.96;96.04
37778;BME280;23615;51.506;7.678;2023-05-13T06:55:39;100424.09;;;13.07;96.39
37778;BME280;23615;51.506;7.678;2023-05-13T06:58:09;100428.75;;;13.12;96.58
37778;BME280;23615;51.506;7.678;2023-05-13T07:00:39;100433.69;;;13.15;95.29
37778;BME280;23615;51.506;7.678;2023-05-13T07:03:05;100424.88;;;13.26;95.53
37778;BME280;23615;51.506;7.678;2023-05-13T07:05:31;100429.88;;;13.34;93.81
37778;BME280;23615;51.506;7.678;2023-05-13T07:07:57;100427.91;;;13.41;95.31
37778;BME280;23615;51.506;7.678;2023-05-13T07:10:22;100418.47;;;13.51;94.82
37778;BME280;23615;51.506;7.678;2023-05-13T07:12:47;100428.38;;;13.50;93.33
37778;BME280;23615;51.506;7.678;2023-05-13T07:15:13;100420.34;;;13.62;92.41
37778;BME280;23615;51.506;7.678;2023-05-13T07:17:38;100433.03;;;13.66;91.11
37778;BME280;23615;51.506;7.678;2023-05-13T07:20:04;100442.63;;;13.74;91.13
37778;BME280;23615;51.506;7.678;2023-05-13T07:22:30;100425.72;;;13.73;90.37
37778;BME280;23615;51.506;7.678;2023-05-13T07:24:55;100422.91;;;13.68;89.45
37778;BME280;23615;51.506;7.678;2023-05-13T07:27:21;100427.09;;;13.76;88.48
37778;BME280;23615;51.506;7.678;2023-05-13T07:29:46;100426.25;;;13.75;89.43
37778;BME280;23615;51.506;7.678;2023-05-13T07:32:12;100421.34;;;13.84;88.83
37778;BME280;23615;51.506;7.678;2023-05-13T07:34:37;100426.41;;;13.92;88.35
37778;BME280;23615;51.506;7.678;2023-05-13T07:37:03;100424.03;;;13.96;89.93
37778;BME280;23615;51.506;7.678;2023-05-13T07:39:28;100421.69;;;14.11;89.24
37778;BME280;23615;51.506;7.678;2023-05-13T07:41:54;100424.94;;;14.13;88.14
37778;BME280;23615;51.506;7.678;2023-05-13T07:44:20;100426.56;;;14.14;87.64
37778;BME280;23615;51.506;7.678;2023-05-13T07:46:46;100429.38;;;14.19;86.57
37778;BME280;23615;51.506;7.678;2023-05-13T07:49:12;100436.25;;;14.27;86.44
37778;BME280;23615;51.506;7.678;2023-05-13T07:51:37;100438.19;;;14.31;85.84
37778;BME280;23615;51.506;7.678;2023-05-13T07:54:02;100436.69;;;14.35;87.95
37778;BME280;23615;51.506;7.678;2023-05-13T07:56:28;100429.91;;;14.44;87.51
37778;BME280;23615;51.506;7.678;2023-05-13T07:58:53;100428.72;;;14.52;87.07
37778;BME280;23615;51.506;7.678;2023-05-13T08:01:19;100423.34;;;14.52;86.55
37778;BME280;23615;51.506;7.678;2023-05-13T08:03:44;100424.59;;;14.61;85.06
37778;BME280;23615;51.506;7.678;2023-05-13T08:06:09;100425.75;;;14.65;84.34
37778;BME280;23615;51.506;7.678;2023-05-13T08:08:35;100433.66;;;14.72;85.12
37778;BME280;23615;51.506;7.678;2023-05-13T08:11:01;100430.00;;;14.78;84.10
37778;BME280;23615;51.506;7.678;2023-05-13T08:13:26;100431.25;;;14.87;83.56
37778;BME280;23615;51.506;7.678;2023-05-13T08:15:51;100430.38;;;14.98;82.82
37778;BME280;23615;51.506;7.678;2023-05-13T08:18:17;100430.38;;;14.98;82.55
37778;BME280;23615;51.506;7.678;2023-05-13T08:20:43;100434.69;;;14.99;83.66
37778;BME280;23615;51.506;7.678;2023-05-13T08:23:08;100431.59;;;15.07;83.73
37778;BME280;23615;51.506;7.678;2023-05-13T08:25:33;100425.59;;;15.17;82.89
37778;BME280;23615;51.506;7.678;2023-05-13T08:27:59;100429.56;;;15.14;80.93
37778;BME280;23615;51.506;7.678;2023-05-13T08:30:24;100431.38;;;15.25;81.08
37778;BME280;23615;51.506;7.678;2023-05-13T08:32:49;100428.44;;;15.27;79.67
37778;BME280;23615;51.506;7.678;2023-05-13T08:35:15;100440.25;;;15.43;79.43
37778;BME280;23615;51.506;7.678;2023-05-13T08:37:40;100431.88;;;15.56;79.67
37778;BME280;23615;51.506;7.678;2023-05-13T08:40:06;100423.31;;;15.59;78.43
37778;BME280;23615;51.506;7.678;2023-05-13T08:42:32;100423.69;;;15.67;79.17
37778;BME280;23615;51.506;7.678;2023-05-13T08:45:01;100422.78;;;15.79;78.70
37778;BME280;23615;51.506;7.678;2023-05-13T08:50:02;100422.44;;;15.92;77.63
37778;BME280;23615;51.506;7.678;2023-05-13T08:52:28;100424.72;;;16.00;78.09
37778;BME280;23615;51.506;7.678;2023-05-13T08:54:53;100418.94;;;16.13;78.19
37778;BME280;23615;51.506;7.678;2023-05-13T08:57:20;100420.38;;;16.21;78.93
37778;BME280;23615;51.506;7.678;2023-05-13T08:59:46;100420.91;;;16.18;77.11
37778;BME280;23615;51.506;7.678;2023-05-13T09:02:11;100420.00;;;16.34;77.44
37778;BME280;23615;51.506;7.678;2023-05-13T09:04:38;100420.44;;;16.48;78.20
37778;BME280;23615;51.506;7.678;2023-05-13T09:07:06;100424.25;;;16.52;76.90
37778;BME280;23615;51.506;7.678;2023-05-13T09:09:32;100417.94;;;16.63;76.24
37778;BME280;23615;51.506;7.678;2023-05-13T09:11:57;100418.63;;;16.75;76.57
37778;BME280;23615;51.506;7.678;2023-05-13T09:14:28;100420.78;;;16.78;77.19
37778;BME280;23615;51.506;7.678;2023-05-13T09:16:55;100417.94;;;16.90;77.53
37778;BME280;23615;51.506;7.678;2023-05-13T09:19:23;100426.22;;;17.10;77.89
37778;BME280;23615;51.506;7.678;2023-05-13T09:21:48;100412.00;;;17.19;78.63
37778;BME280;23615;51.506;7.678;2023-05-13T09:24:14;100413.41;;;17.27;78.30
37778;BME280;23615;51.506;7.678;2023-05-13T09:26:46;100412.09;;;17.30;76.72
37778;BME280;23615;51.506;7.678;2023-05-13T09:29:19;100412.75;;;17.47;77.55
37778;BME280;23615;51.506;7.678;2023-05-13T09:31:49;100412.03;;;17.62;76.64
37778;BME280;23615;51.506;7.678;2023-05-13T09:34:33;100406.16;;;17.70;76.20
37778;BME280;23615;51.506;7.678;2023-05-13T09:37:01;100401.13;;;17.83;76.69
37778;BME280;23615;51.506;7.678;2023-05-13T09:39:27;100404.94;;;17.87;76.07
37778;BME280;23615;51.506;7.678;2023-05-13T09:41:53;100402.56;;;18.01;75.47
37778;BME280;23615;51.506;7.678;2023-05-13T09:44:20;100402.63;;;18.16;77.58
37778;BME280;23615;51.506;7.678;2023-05-13T09:46:45;100399.97;;;18.26;76.74
37778;BME280;23615;51.506;7.678;2023-05-13T09:49:11;100391.34;;;18.35;75.71
37778;BME280;23615;51.506;7.678;2023-05-13T09:51:36;100394.63;;;18.47;75.36
37778;BME280;23615;51.506;7.678;2023-05-13T09:54:03;100393.63;;;18.63;75.10
37778;BME280;23615;51.506;7.678;2023-05-13T09:56:33;100383.63;;;18.74;73.26
37778;BME280;23615;51.506;7.678;2023-05-13T09:58:59;100388.78;;;18.80;73.72
37778;BME280;23615;51.506;7.678;2023-05-13T10:01:26;100392.03;;;18.92;73.79
37778;BME280;23615;51.506;7.678;2023-05-13T10:03:53;100386.63;;;19.08;73.74
37778;BME280;23615;51.506;7.678;2023-05-13T10:06:21;100395.28;;;19.15;72.57
37778;BME280;23615;51.506;7.678;2023-05-13T10:08:49;100390.41;;;19.22;71.57
37778;BME280;23615;51.506;7.678;2023-05-13T10:11:16;100387.19;;;19.30;72.35
37778;BME280;23615;51.506;7.678;2023-05-13T10:13:45;100397.97;;;19.40;75.08
37778;BME280;23615;51.506;7.678;2023-05-13T10:16:13;100390.94;;;19.44;71.72
37778;BME280;23615;51.506;7.678;2023-05-13T10:18:39;100382.84;;;19.54;70.47
37778;BME280;23615;51.506;7.678;2023-05-13T10:21:05;100379.28;;;19.69;71.59
37778;BME280;23615;51.506;7.678;2023-05-13T10:23:31;100380.56;;;19.87;69.78
37778;BME280;23615;51.506;7.678;2023-05-13T10:25:58;100371.63;;;19.91;68.87
37778;BME280;23615;51.506;7.678;2023-05-13T10:28:24;100378.41;;;19.89;70.75
37778;BME280;23615;51.506;7.678;2023-05-13T10:30:49;100378.34;;;20.04;68.40
37778;BME280;23615;51.506;7.678;2023-05-13T10:33:18;100378.56;;;20.17;68.30
37778;BME280;23615;51.506;7.678;2023-05-13T10:39:06;100370.59;;;20.41;67.25
37778;BME280;23615;51.506;7.678;2023-05-13T10:44:13;100361.91;;;20.44;67.44
37778;BME280;23615;51.506;7.678;2023-05-13T10:46:41;100361.31;;;20.52;66.10
37778;BME280;23615;51.506;7.678;2023-05-13T10:49:13;100359.09;;;20.60;63.93
37778;BME280;23615;51.506;7.678;2023-05-13T10:51:44;100362.31;;;20.67;64.60
37778;BME280;23615;51.506;7.678;2023-05-13T10:54:17;100362.22;;;20.77;64.61
37778;BME280;23615;51.506;7.678;2023-05-13T10:56:43;100359.28;;;20.73;63.98
37778;BME280;23615;51.506;7.678;2023-05-13T10:59:10;100363.03;;;20.82;63.67
37778;BME280;23615;51.506;7.678;2023-05-13T11:01:37;100351.00;;;20.94;63.66
37778;BME280;23615;51.506;7.678;2023-05-13T11:04:11;100360.72;;;21.00;62.40
37778;BME280;23615;51.506;7.678;2023-05-13T11:06:39;100358.03;;;20.95;62.92
37778;BME280;23615;51.506;7.678;2023-05-13T11:09:12;100358.22;;;21.03;62.97
37778;BME280;23615;51.506;7.678;2023-05-13T11:11:38;100353.78;;;21.12;62.64
37778;BME280;23615;51.506;7.678;2023-05-13T11:14:15;100360.50;;;21.25;63.03
37778;BME280;23615;51.506;7.678;2023-05-13T11:19:30;100345.59;;;21.22;61.39
37778;BME280;23615;51.506;7.678;2023-05-13T11:22:00;100346.69;;;21.21;62.22
37778;BME280;23615;51.506;7.678;2023-05-13T11:24:28;100338.03;;;21.14;63.53
37778;BME280;23615;51.506;7.678;2023-05-13T11:26:55;100344.38;;;21.39;63.75
37778;BME280;23615;51.506;7.678;2023-05-13T11:29:29;100347.38;;;21.37;62.12
37778;BME280;23615;51.506;7.678;2023-05-13T11:31:56;100339.94;;;21.14;64.06
37778;BME280;23615;51.506;7.678;2023-05-13T11:34:23;100339.31;;;21.27;64.36
37778;BME280;23615;51.506;7.678;2023-05-13T11:36:54;100338.06;;;21.43;63.16
37778;BME280;23615;51.506;7.678;2023-05-13T11:39:21;100334.63;;;21.61;63.03
37778;BME280;23615;51.506;7.678;2023-05-13T11:41:51;100336.31;;;21.57;66.12
37778;BME280;23615;51.506;7.678;2023-05-13T11:44:22;100336.13;;;21.73;63.33
37778;BME280;23615;51.506;7.678;2023-05-13T11:46:57;100345.78;;;21.84;61.40
37778;BME280;23615;51.506;7.678;2023-05-13T11:49:40;100331.47;;;21.97;59.26
37778;BME280;23615;51.506;7.678;2023-05-13T11:52:08;100341.44;;;22.07;58.40
37778;BME280;23615;51.506;7.678;2023-05-13T11:54:51;100336.88;;;22.02;58.26
37778;BME280;23615;51.506;7.678;2023-05-13T11:57:21;100329.75;;;22.06;57.50
37778;BME280;23615;51.506;7.678;2023-05-13T11:59:58;100324.03;;;22.08;57.11
37778;BME280;23615;51.506;7.678;2023-05-13T12:02:29;100329.97;;;22.10;57.84
37778;BME280;23615;51.506;7.678;2023-05-13T12:04:58;100329.31;;;22.18;57.14
37778;BME280;23615;51.506;7.678;2023-05-13T12:07:25;100324.84;;;22.27;58.33
37778;BME280;23615;51.506;7.678;2023-05-13T12:09:52;100319.84;;;22.34;57.89
37778;BME280;23615;51.506;7.678;2023-05-13T12:12:18;100331.53;;;22.34;59.34
37778;BME280;23615;51.506;7.678;2023-05-13T12:14:45;100330.56;;;22.44;56.12
37778;BME280;23615;51.506;7.678;2023-05-13T12:17:13;100329.09;;;22.52;56.59
37778;BME280;23615;51.506;7.678;2023-05-13T12:19:39;100327.03;;;22.62;56.05
37778;BME280;23615;51.506;7.678;2023-05-13T12:22:06;100326.94;;;22.67;56.27
37778;BME280;23615;51.506;7.678;2023-05-13T12:24:32;100325.25;;;22.71;57.23
37778;BME280;23615;51.506;7.678;2023-05-13T12:27:06;100325.00;;;22.54;56.99
37778;BME280;23615;51.506;7.678;2023-05-13T12:29:39;100320.63;;;22.72;58.92
37778;BME280;23615;51.506;7.678;2023-05-13T12:32:05;100318.72;;;22.72;57.46
37778;BME280;23615;51.506;7.678;2023-05-13T12:34:31;100319.28;;;22.88;56.99
37778;BME280;23615;51.506;7.678;2023-05-13T12:37:08;100317.91;;;22.91;55.65
37778;BME280;23615;51.506;7.678;2023-05-13T12:39:33;100321.09;;;23.11;57.93
37778;BME280;23615;51.506;7.678;2023-05-13T12:41:58;100311.13;;;23.34;58.15
37778;BME280;23615;51.506;7.678;2023-05-13T12:44:24;100315.06;;;23.42;56.86
37778;BME280;23615;51.506;7.678;2023-05-13T12:46:54;100310.06;;;23.49;58.43
37778;BME280;23615;51.506;7.678;2023-05-13T12:49:21;100314.88;;;23.38;58.16
37778;BME280;23615;51.506;7.678;2023-05-13T12:51:47;100302.78;;;23.44;55.77
37778;BME280;23615;51.506;7.678;2023-05-13T12:54:12;100307.47;;;23.25;57.18
37778;BME280;23615;51.506;7.678;2023-05-13T12:56:38;100313.81;;;23.07;58.27
37778;BME280;23615;51.506;7.678;2023-05-13T12:59:06;100309.97;;;22.94;54.59
37778;BME280;23615;51.506;7.678;2023-05-13T13:01:32;100310.81;;;23.22;56.71